createdAt,value
2023-03-21T00:04:24.858Z,99882.44
2023-03-21T00:09:27.186Z,99881.00
2023-03-21T00:14:31.172Z,99880.78
2023-03-21T00:19:32.948Z,99857.13
2023-03-21T00:24:36.022Z,99843.94
2023-03-21T00:29:37.946Z,99851.59
2023-03-21T00:34:48.545Z,99877.97
2023-03-21T00:39:56.514Z,99849.28
2023-03-21T00:44:58.249Z,99851.44
2023-03-21T00:49:59.866Z,99851.38
2023-03-21T00:55:01.594Z,99855.34
2023-03-21T01:00:07.454Z,99859.41
2023-03-21T01:05:11.638Z,99816.66
2023-03-21T01:10:13.629Z,99850.66
2023-03-21T01:15:15.442Z,99846.97
2023-03-21T01:20:17.401Z,99844.88
2023-03-21T01:25:22.699Z,99844.88
2023-03-21T01:30:24.972Z,99832.41
2023-03-21T01:35:30.012Z,99811.91
2023-03-21T01:40:34.117Z,99805.78
2023-03-21T01:46:09.975Z,99781.91
2023-03-21T01:51:13.513Z,99826.25
2023-03-21T01:56:38.809Z,99809.31
2023-03-21T02:01:42.424Z,99808.56
2023-03-21T02:06:54.583Z,99811.06
2023-03-21T02:11:56.995Z,99795.59
2023-03-21T02:17:05.705Z,99813.81
2023-03-21T02:22:28.877Z,99743.53
2023-03-21T02:27:40.987Z,99826.72
2023-03-21T02:32:48.316Z,99826.00
2023-03-21T02:38:00.862Z,99791.22
2023-03-21T02:43:32.104Z,99826.28
2023-03-21T02:48:50.706Z,99807.34
2023-03-21T02:54:27.914Z,99827.72
2023-03-21T02:59:27.123Z,99838.47
2023-03-21T03:04:29.041Z,99827.09
2023-03-21T03:09:43.312Z,99791.09
2023-03-21T03:15:03.630Z,99777.41
2023-03-21T03:20:20.593Z,99774.72
2023-03-21T03:25:43.060Z,99807.03
2023-03-21T03:31:01.200Z,99749.59
2023-03-21T03:36:25.024Z,99759.38
2023-03-21T03:42:03.089Z,99795.13
2023-03-21T03:47:06.544Z,99819.13
2023-03-21T03:52:21.703Z,99768.41
2023-03-21T03:57:26.304Z,99811.94
2023-03-21T04:02:30.207Z,99831.13
2023-03-21T04:07:32.139Z,99806.47
2023-03-21T04:12:33.969Z,99812.72
2023-03-21T04:17:35.660Z,99829.88
2023-03-21T04:22:38.157Z,99839.44
2023-03-21T04:27:39.828Z,99857.38
2023-03-21T04:32:42.729Z,99877.97
2023-03-21T04:37:44.427Z,99859.34
2023-03-21T04:42:49.344Z,99819.41
2023-03-21T04:47:51.158Z,99830.63
2023-03-21T04:52:52.856Z,99764.16
2023-03-21T04:57:54.649Z,99842.13
2023-03-21T05:02:57.815Z,99855.47
2023-03-21T05:08:00.607Z,99854.09
2023-03-21T05:13:02.314Z,99881.63
2023-03-21T05:18:11.456Z,99869.31
2023-03-21T05:23:13.257Z,99874.94
2023-03-21T05:28:18.200Z,99843.69
2023-03-21T05:33:19.826Z,99880.53
2023-03-21T05:38:21.625Z,99853.69
2023-03-21T05:43:23.419Z,99796.53
2023-03-21T05:48:25.413Z,99852.91
2023-03-21T05:53:27.313Z,99892.25
2023-03-21T05:58:29.998Z,99859.81
2023-03-21T06:03:31.697Z,99838.78
2023-03-21T06:08:33.680Z,99866.41
2023-03-21T06:13:35.319Z,99853.25
2023-03-21T06:18:37.440Z,99859.44
2023-03-21T06:23:39.461Z,99924.06
2023-03-21T06:28:41.312Z,99916.34
2023-03-21T06:33:43.028Z,99888.41
2023-03-21T06:38:44.780Z,99885.25
2023-03-21T06:43:46.537Z,99880.25
2023-03-21T06:48:48.343Z,99900.19
2023-03-21T06:53:50.033Z,99857.69
2023-03-21T06:58:51.779Z,99892.16
2023-03-21T07:03:58.357Z,99889.34
2023-03-21T07:09:00.733Z,99924.97
2023-03-21T07:14:02.492Z,99836.84
2023-03-21T07:19:04.193Z,99908.44
2023-03-21T07:24:06.227Z,99907.16
2023-03-21T07:29:08.158Z,99872.81
2023-03-21T07:34:09.776Z,99891.56
2023-03-21T07:39:11.431Z,99857.78
2023-03-21T07:44:13.257Z,99883.00
2023-03-21T07:49:15.435Z,99884.50
2023-03-21T07:54:19.339Z,99877.56
2023-03-21T07:59:21.124Z,99914.03
2023-03-21T08:04:22.885Z,99904.44
2023-03-21T08:09:24.787Z,99894.59
2023-03-21T08:14:26.460Z,99923.72
2023-03-21T08:19:28.202Z,99920.38
2023-03-21T08:24:30.255Z,99898.78
2023-03-21T08:29:32.004Z,99895.34
2023-03-21T08:34:33.674Z,99908.31
2023-03-21T08:39:35.357Z,99920.72
2023-03-21T08:44:39.053Z,99901.19
2023-03-21T08:49:41.694Z,99923.53
2023-03-21T08:54:45.430Z,99911.13
2023-03-21T08:59:47.152Z,99909.88
2023-03-21T09:04:48.872Z,99897.06
2023-03-21T09:10:08.094Z,99901.44
2023-03-21T09:15:15.262Z,99871.38
2023-03-21T09:20:18.818Z,99921.75
2023-03-21T09:25:21.548Z,99912.81
2023-03-21T09:30:26.147Z,99864.28
2023-03-21T09:35:28.361Z,99897.47
2023-03-21T09:40:50.372Z,99866.00
2023-03-21T09:45:58.413Z,99852.47
2023-03-21T09:51:01.193Z,99807.34
2023-03-21T09:56:05.574Z,99857.53
2023-03-21T10:01:22.306Z,99828.34
2023-03-21T10:06:29.429Z,99805.34
2023-03-21T10:11:42.433Z,99856.06
2023-03-21T10:16:47.149Z,99846.91
2023-03-21T10:22:05.959Z,99790.34
2023-03-21T10:27:07.888Z,99824.09
2023-03-21T10:32:13.893Z,99782.59
2023-03-21T10:37:16.927Z,99774.94
2023-03-21T10:42:24.972Z,99797.75
2023-03-21T10:47:31.248Z,99776.63
2023-03-21T10:52:34.521Z,99777.16
2023-03-21T10:57:38.200Z,99780.97
2023-03-21T11:06:36.633Z,99864.25
2023-03-21T11:11:40.887Z,99810.75
2023-03-21T11:16:44.216Z,99787.28
2023-03-21T11:21:46.472Z,99794.19
2023-03-21T11:26:50.822Z,99797.19
2023-03-21T11:31:52.629Z,99770.91
2023-03-21T11:36:59.720Z,99788.53
2023-03-21T11:42:01.344Z,99754.63
2023-03-21T11:47:03.300Z,99767.34
2023-03-21T11:52:32.830Z,99785.50
2023-03-21T11:57:46.621Z,99775.47
2023-03-21T12:03:03.507Z,99735.66
2023-03-21T12:08:20.432Z,99753.59
2023-03-21T12:13:46.786Z,99736.03
2023-03-21T12:19:00.726Z,99724.34
2023-03-21T12:24:24.885Z,99723.47
2023-03-21T12:29:27.047Z,99703.47
2023-03-21T12:34:34.964Z,99679.25
2023-03-21T12:39:40.894Z,99684.22
2023-03-21T12:44:47.975Z,99673.41
2023-03-21T12:50:12.855Z,99689.16
2023-03-21T12:55:27.897Z,99681.53
2023-03-21T13:00:32.262Z,99645.09
2023-03-21T13:05:35.888Z,99632.56
2023-03-21T13:10:40.427Z,99624.06
2023-03-21T13:15:59.743Z,99627.84
2023-03-21T13:21:13.741Z,99610.66
2023-03-21T13:26:16.100Z,99570.13
2023-03-21T13:31:25.825Z,99590.06
2023-03-21T13:36:31.846Z,99517.00
2023-03-21T13:41:38.903Z,99536.53
2023-03-21T13:46:54.029Z,99549.25
2023-03-21T13:51:58.903Z,99524.19
2023-03-21T13:57:05.372Z,99555.63
2023-03-21T14:02:19.005Z,99530.72
2023-03-21T14:07:26.409Z,99499.59
2023-03-21T14:12:34.792Z,99505.94
2023-03-21T14:17:36.609Z,99520.44
2023-03-21T14:22:41.861Z,99518.66
2023-03-21T14:27:47.567Z,99493.38
2023-03-21T14:32:49.512Z,99480.25
2023-03-21T14:37:51.735Z,99498.06
2023-03-21T14:42:54.494Z,99509.97
2023-03-21T14:48:06.783Z,99483.38
2023-03-21T14:53:32.749Z,99459.34
2023-03-21T14:58:38.999Z,99500.13
2023-03-21T15:03:43.888Z,99483.22
2023-03-21T15:09:04.061Z,99452.00
2023-03-21T15:14:14.062Z,99462.25
2023-03-21T15:19:20.183Z,99455.81
2023-03-21T15:24:30.297Z,99393.41
2023-03-21T15:29:34.441Z,99458.63
2023-03-21T15:34:36.656Z,99437.91
2023-03-21T15:39:38.408Z,99429.66
2023-03-21T15:44:49.588Z,99398.25
2023-03-21T15:49:55.710Z,99402.97
2023-03-21T15:54:59.293Z,99377.59
2023-03-21T16:00:12.869Z,99383.34
2023-03-21T16:05:26.435Z,99397.63
2023-03-21T16:10:32.260Z,99373.13
2023-03-21T16:15:34.278Z,99426.88
2023-03-21T16:20:41.100Z,99424.09
2023-03-21T16:25:44.084Z,99386.91
2023-03-21T16:30:45.791Z,99420.81
2023-03-21T16:35:47.621Z,99414.25
2023-03-21T16:40:51.352Z,99406.56
2023-03-21T16:45:53.053Z,99381.88
2023-03-21T16:50:54.695Z,99351.16
2023-03-21T16:56:02.516Z,99362.66
2023-03-21T17:01:04.245Z,99340.97
2023-03-21T17:06:06.220Z,99392.50
2023-03-21T17:11:12.725Z,99389.66
2023-03-21T17:16:19.283Z,99357.19
2023-03-21T17:21:24.039Z,99364.09
2023-03-21T17:26:28.401Z,99386.75
2023-03-21T17:31:37.214Z,99380.28
2023-03-21T17:36:42.230Z,99373.91
2023-03-21T17:41:43.955Z,99421.94
2023-03-21T17:46:46.498Z,99395.72
2023-03-21T17:51:48.302Z,99363.47
2023-03-21T17:56:50.004Z,99404.09
2023-03-21T18:01:51.938Z,99441.66
2023-03-21T18:06:57.421Z,99401.94
2023-03-21T18:11:59.126Z,99386.59
2023-03-21T18:17:00.878Z,99428.19
2023-03-21T18:22:03.679Z,99428.94
2023-03-21T18:27:06.558Z,99445.16
2023-03-21T18:32:08.945Z,99435.91
2023-03-21T18:37:13.265Z,99423.38
2023-03-21T18:42:18.456Z,99434.34
2023-03-21T18:47:24.713Z,99467.56
2023-03-21T18:52:27.177Z,99466.91
2023-03-21T18:57:38.253Z,99458.06
2023-03-21T19:02:47.732Z,99418.34
2023-03-21T19:07:51.591Z,99408.22
2023-03-21T19:12:54.762Z,99458.75
2023-03-21T19:23:18.824Z,99453.28
2023-03-21T19:28:20.558Z,99423.19
2023-03-21T19:33:22.779Z,99443.69
2023-03-21T19:38:24.382Z,99402.47
2023-03-21T19:43:32.894Z,99465.16
2023-03-21T19:48:35.269Z,99497.91
2023-03-21T19:53:39.996Z,99489.72
2023-03-21T19:58:41.845Z,99471.16
2023-03-21T20:03:47.331Z,99496.19
2023-03-21T20:09:27.660Z,99458.59
2023-03-21T20:14:11.069Z,99435.13
2023-03-21T20:19:14.703Z,99485.31
2023-03-21T20:24:17.002Z,99474.28
2023-03-21T20:34:40.650Z,99432.41
2023-03-21T20:39:42.671Z,99505.41
2023-03-21T20:44:57.956Z,99484.69
2023-03-21T20:50:00.556Z,99487.88
2023-03-21T20:55:03.093Z,99501.75
2023-03-21T21:00:09.087Z,99503.69
2023-03-21T21:05:25.409Z,99513.53
2023-03-21T21:10:29.794Z,99511.13
2023-03-21T21:15:33.327Z,99493.06
2023-03-21T21:20:36.779Z,99471.25
2023-03-21T21:25:38.581Z,99524.22
2023-03-21T21:30:41.470Z,99472.03
2023-03-21T21:35:47.716Z,99518.09
2023-03-21T21:40:53.454Z,99450.75
2023-03-21T21:45:55.104Z,99464.81
2023-03-21T21:50:56.783Z,99500.38
2023-03-21T21:55:58.383Z,99500.13
2023-03-21T22:01:01.849Z,99450.34
2023-03-21T22:06:04.697Z,99533.25
2023-03-21T22:11:06.704Z,99517.19
2023-03-21T22:16:08.666Z,99495.25
2023-03-21T22:21:10.396Z,99462.66
2023-03-21T22:26:12.014Z,99501.91
2023-03-21T22:31:16.089Z,99470.31
2023-03-21T22:36:17.832Z,99509.88
2023-03-21T22:41:19.402Z,99500.47
2023-03-21T22:46:21.166Z,99493.63
2023-03-21T22:51:22.860Z,99450.09
2023-03-21T22:56:24.540Z,99406.09
2023-03-21T23:01:26.291Z,99520.56
2023-03-21T23:06:27.965Z,99485.75
2023-03-21T23:11:29.731Z,99521.69
2023-03-21T23:16:31.990Z,99534.06
2023-03-21T23:21:34.149Z,99520.69
2023-03-21T23:26:36.373Z,99494.34
2023-03-21T23:31:38.104Z,99502.16
2023-03-21T23:36:39.914Z,99533.41
2023-03-21T23:41:42.877Z,99503.31
2023-03-21T23:46:44.576Z,99505.19
2023-03-21T23:51:47.161Z,99435.19
2023-03-21T23:56:48.840Z,99524.28
